map of HIJ home
HIJ - Airport
Location
City:  Hiroshima, Hiroshima, Japan
Near (Alt.):Mihara
Name:Hiroshima Airport
ICAO:RJOA
IATA:HIJ

Details
Type:Airport (Aerodrome, Airfield)
Use:Public/Civil
Latitude:3426'10"N (34.436111)
Longitude:13255'10"E (132.919444)
Datum:WGS 1984
Elevation:1088 ft (332 m)
Variation:7.78W (WMM2015 magnetic declination)
-0.07 annual change
Runways:1
Longest:9842 × 200 ft (3000 × 61 m), paved

Time
Time Zone:UTC+9
Local Time:

Weather
METAR:RJOA 220400Z 29010KT 9999 FEW035 10/M06 Q1015
TAF:RJOA 212305Z 2200/2306 29008KT 9999 FEW025 SCT045

Related Locations
Nearby:
Farthest:SSMT: 12117 mi / 19500 km
Mostardas, RS, BR

Find:

   beyond  
but within

Other Information
Maps:
NOTAMs:
Links:
Sources:

  
  • flag of Japan
  • flag of Hiroshima
  • flag of Hiroshima
  

Sectional Chart

Flight Planning
at skyvector.com

Satellite Image

Google Maps Satellite view

 

Copyright © 2004-2019 Karl L. Swartz. All rights reserved.
The Great Circle Mapper name and logo are trademarks of the Great Circle Mapper.
All other trademarks mentioned herein belong to their respective owners.
Please see credits for attibutions and further copyright information.

  Follow gcmap on Facebook Follow gcmap on Twitter Follow gcmap on Google+ GCmap on LinkedIn

hCard Microformat

Geo Microformat